Legacy — WDG4891 — position and weather

sailwx.info

Track history (hours):
 
Tides and Currents Weather Stations Pressure Air Temp Water Temp Dewpoint Dewpoint Depression Visibility Wind Speed Wind Dir Waves Ship Positions

Legacy

Owner: Enterprise Marine Services, LLC, San Antonio, TX. More information available from US FCC via Universal Licensing System and Coast Guard Vessel Documentation Center.

Last reported at 2018-Jul-16 16:54 UTC. Time now 2018-Jul-22 03:09 UTC.
Position N 32°40' W 091°07'.

Length 25 m; draft 3 m.

Type: . MMSI: 367541160.

Date/timePositionNaut miles runAvg speedWind from/ knotsBaromVisibWave heightAir tempDewpointWater temp
2018-Jul-16 16:54N 32°40' W 091°07'3 5.2
2018-Jul-16 16:17N 32°37' W 091°09'0 1.8
2018-Jul-16 16:00N 32°37' W 091°09'1 2.7
2018-Jul-16 15:31N 32°36' W 091°08'3 5.2
2018-Jul-16 15:00N 32°34' W 091°06'3 4.7
2018-Jul-16 14:27N 32°31' W 091°06'2 4.9
2018-Jul-16 14:00N 32°29' W 091°07'3 5.2
2018-Jul-16 13:31N 32°27' W 091°05'3 5.4
2018-Jul-16 13:00N 32°26' W 091°02'3 5.0
2018-Jul-16 12:30N 32°24' W 090°60'2 3.9
2018-Jul-16 12:00N 32°23' W 091°00'3 5.1
2018-Jul-16 11:30N 32°21' W 090°58'2 4.9
2018-Jul-16 11:00N 32°20' W 090°55'2 4.1
2018-Jul-16 10:31N 32°18' W 090°55'3 5.1
2018-Jul-16 10:01N 32°17' W 090°57'2 4.8
2018-Jul-16 09:30N 32°15' W 090°59'3 5.5
2018-Jul-16 09:00N 32°12' W 090°59'2 4.9
2018-Jul-16 08:30N 32°10' W 091°00'3 5.1
2018-Jul-16 08:00N 32°07' W 091°01'2 4.6
2018-Jul-16 07:30N 32°08' W 091°04'2 4.3
2018-Jul-16 07:00N 32°07' W 091°06'3 2.7
2018-Jul-16 06:00N 32°05' W 091°04'3 4.7
2018-Jul-16 05:27N 32°03' W 091°04'2 4.3
2018-Jul-16 04:53N 32°00' W 091°05'3 4.8
2018-Jul-16 04:13N 31°59' W 091°09'2 5.4
2018-Jul-16 03:53N 31°59' W 091°11'9 4.9
2018-Jul-16 02:08N 31°51' W 091°16'1 4.7
2018-Jul-16 01:54N 31°51' W 091°17'2 5.1
2018-Jul-16 01:27N 31°51' W 091°20'  
Track history (hours):
 
Tides and Currents Weather Stations Pressure Air Temp Water Temp Dewpoint Dewpoint Depression Visibility Wind Speed Wind Dir Waves Ship Positions

Legacy

Owner: Enterprise Marine Services, LLC, San Antonio, TX. More information available from US FCC via Universal Licensing System and Coast Guard Vessel Documentation Center.

Last reported at 2018-Jul-16 16:54 UTC. Time now 2018-Jul-22 03:09 UTC.
Position N 32°40' W 091°07'.

Length 25 m; draft 3 m.

Type: . MMSI: 367541160.

Date/timePositionNaut miles runAvg speedWind from/ knotsBaromVisibWave heightAir tempDewpointWater temp
2018-Jul-16 16:54N 32°40' W 091°07'3 5.2
2018-Jul-16 16:17N 32°37' W 091°09'0 1.8
2018-Jul-16 16:00N 32°37' W 091°09'1 2.7
2018-Jul-16 15:31N 32°36' W 091°08'3 5.2
2018-Jul-16 15:00N 32°34' W 091°06'3 4.7
2018-Jul-16 14:27N 32°31' W 091°06'2 4.9
2018-Jul-16 14:00N 32°29' W 091°07'3 5.2
2018-Jul-16 13:31N 32°27' W 091°05'3 5.4
2018-Jul-16 13:00N 32°26' W 091°02'3 5.0
2018-Jul-16 12:30N 32°24' W 090°60'2 3.9
2018-Jul-16 12:00N 32°23' W 091°00'3 5.1
2018-Jul-16 11:30N 32°21' W 090°58'2 4.9
2018-Jul-16 11:00N 32°20' W 090°55'2 4.1
2018-Jul-16 10:31N 32°18' W 090°55'3 5.1
2018-Jul-16 10:01N 32°17' W 090°57'2 4.8
2018-Jul-16 09:30N 32°15' W 090°59'3 5.5
2018-Jul-16 09:00N 32°12' W 090°59'2 4.9
2018-Jul-16 08:30N 32°10' W 091°00'3 5.1
2018-Jul-16 08:00N 32°07' W 091°01'2 4.6
2018-Jul-16 07:30N 32°08' W 091°04'2 4.3
2018-Jul-16 07:00N 32°07' W 091°06'3 2.7
2018-Jul-16 06:00N 32°05' W 091°04'3 4.7
2018-Jul-16 05:27N 32°03' W 091°04'2 4.3
2018-Jul-16 04:53N 32°00' W 091°05'3 4.8
2018-Jul-16 04:13N 31°59' W 091°09'2 5.4
2018-Jul-16 03:53N 31°59' W 091°11'9 4.9
2018-Jul-16 02:08N 31°51' W 091°16'1 4.7
2018-Jul-16 01:54N 31°51' W 091°17'2 5.1
2018-Jul-16 01:27N 31°51' W 091°20'  

Dump ship's entire track history